sensor_id;sensor_type;location;lat;lon;timestamp;P1;durP1;ratioP1;P2;durP2;ratioP2
40931;SDS011;36257;46.052;12.540;2023-12-28T00:00:37;16.10;;;12.48;;
40931;SDS011;36257;46.052;12.540;2023-12-28T00:03:03;18.58;;;14.45;;
40931;SDS011;36257;46.052;12.540;2023-12-28T00:05:29;15.00;;;11.93;;
40931;SDS011;36257;46.052;12.540;2023-12-28T00:07:54;16.42;;;13.85;;
40931;SDS011;36257;46.052;12.540;2023-12-28T00:10:26;24.85;;;20.58;;
40931;SDS011;36257;46.052;12.540;2023-12-28T00:12:53;29.70;;;25.02;;
40931;SDS011;36257;46.052;12.540;2023-12-28T00:15:19;37.47;;;27.92;;
40931;SDS011;36257;46.052;12.540;2023-12-28T00:17:44;37.97;;;32.13;;
40931;SDS011;36257;46.052;12.540;2023-12-28T00:20:10;40.72;;;31.85;;
40931;SDS011;36257;46.052;12.540;2023-12-28T00:22:37;39.17;;;31.52;;
40931;SDS011;36257;46.052;12.540;2023-12-28T00:25:06;44.13;;;32.25;;
40931;SDS011;36257;46.052;12.540;2023-12-28T00:27:31;43.53;;;31.00;;
40931;SDS011;36257;46.052;12.540;2023-12-28T00:29:59;35.10;;;28.10;;
40931;SDS011;36257;46.052;12.540;2023-12-28T00:32:25;32.90;;;24.42;;
40931;SDS011;36257;46.052;12.540;2023-12-28T00:34:50;24.40;;;20.48;;
40931;SDS011;36257;46.052;12.540;2023-12-28T00:37:16;27.98;;;20.85;;
40931;SDS011;36257;46.052;12.540;2023-12-28T00:39:42;26.35;;;20.33;;
40931;SDS011;36257;46.052;12.540;2023-12-28T00:42:07;23.60;;;19.60;;
40931;SDS011;36257;46.052;12.540;2023-12-28T00:44:33;23.05;;;17.88;;
40931;SDS011;36257;46.052;12.540;2023-12-28T00:46:59;18.08;;;14.45;;
40931;SDS011;36257;46.052;12.540;2023-12-28T00:49:24;14.60;;;11.63;;
40931;SDS011;36257;46.052;12.540;2023-12-28T00:51:50;12.55;;;10.85;;
40931;SDS011;36257;46.052;12.540;2023-12-28T00:54:16;14.57;;;12.50;;
40931;SDS011;36257;46.052;12.540;2023-12-28T00:56:41;14.07;;;12.57;;
40931;SDS011;36257;46.052;12.540;2023-12-28T00:59:07;16.88;;;13.48;;
40931;SDS011;36257;46.052;12.540;2023-12-28T01:01:32;18.30;;;14.10;;
40931;SDS011;36257;46.052;12.540;2023-12-28T01:03:58;18.50;;;15.55;;
40931;SDS011;36257;46.052;12.540;2023-12-28T01:06:24;18.58;;;16.08;;
40931;SDS011;36257;46.052;12.540;2023-12-28T01:08:53;20.50;;;16.45;;
40931;SDS011;36257;46.052;12.540;2023-12-28T01:11:20;18.60;;;13.43;;
40931;SDS011;36257;46.052;12.540;2023-12-28T01:13:45;16.23;;;13.38;;
40931;SDS011;36257;46.052;12.540;2023-12-28T01:16:14;38.67;;;29.85;;
40931;SDS011;36257;46.052;12.540;2023-12-28T01:18:40;41.08;;;32.95;;
40931;SDS011;36257;46.052;12.540;2023-12-28T01:21:05;43.20;;;32.35;;
40931;SDS011;36257;46.052;12.540;2023-12-28T01:23:31;43.20;;;29.40;;
40931;SDS011;36257;46.052;12.540;2023-12-28T01:25:58;39.60;;;30.65;;
40931;SDS011;36257;46.052;12.540;2023-12-28T01:28:24;39.58;;;31.83;;
40931;SDS011;36257;46.052;12.540;2023-12-28T01:30:50;50.25;;;32.53;;
40931;SDS011;36257;46.052;12.540;2023-12-28T01:33:16;40.60;;;31.20;;
40931;SDS011;36257;46.052;12.540;2023-12-28T01:35:41;43.65;;;32.72;;
40931;SDS011;36257;46.052;12.540;2023-12-28T01:38:07;42.90;;;32.15;;
40931;SDS011;36257;46.052;12.540;2023-12-28T01:40:33;45.30;;;34.63;;
40931;SDS011;36257;46.052;12.540;2023-12-28T01:42:58;47.03;;;33.53;;
40931;SDS011;36257;46.052;12.540;2023-12-28T01:45:24;47.55;;;33.35;;
40931;SDS011;36257;46.052;12.540;2023-12-28T01:47:50;46.33;;;35.08;;
40931;SDS011;36257;46.052;12.540;2023-12-28T01:50:19;47.45;;;36.92;;
40931;SDS011;36257;46.052;12.540;2023-12-28T01:52:46;48.83;;;36.80;;
40931;SDS011;36257;46.052;12.540;2023-12-28T01:55:12;50.90;;;39.72;;
40931;SDS011;36257;46.052;12.540;2023-12-28T01:57:39;58.40;;;38.85;;
40931;SDS011;36257;46.052;12.540;2023-12-28T02:00:05;51.25;;;37.95;;
40931;SDS011;36257;46.052;12.540;2023-12-28T02:02:32;52.00;;;38.65;;
40931;SDS011;36257;46.052;12.540;2023-12-28T02:04:59;50.50;;;38.58;;
40931;SDS011;36257;46.052;12.540;2023-12-28T02:07:25;48.92;;;37.35;;
40931;SDS011;36257;46.052;12.540;2023-12-28T02:09:51;50.05;;;37.60;;
40931;SDS011;36257;46.052;12.540;2023-12-28T02:12:16;50.47;;;38.65;;
40931;SDS011;36257;46.052;12.540;2023-12-28T02:14:42;46.42;;;35.45;;
40931;SDS011;36257;46.052;12.540;2023-12-28T02:17:20;44.45;;;34.83;;
40931;SDS011;36257;46.052;12.540;2023-12-28T02:19:52;45.05;;;37.42;;
40931;SDS011;36257;46.052;12.540;2023-12-28T02:22:19;45.08;;;37.30;;
40931;SDS011;36257;46.052;12.540;2023-12-28T02:27:29;51.42;;;37.55;;
40931;SDS011;36257;46.052;12.540;2023-12-28T02:29:55;47.63;;;36.97;;
40931;SDS011;36257;46.052;12.540;2023-12-28T02:32:33;45.35;;;36.35;;
40931;SDS011;36257;46.052;12.540;2023-12-28T02:35:29;44.00;;;34.80;;
40931;SDS011;36257;46.052;12.540;2023-12-28T02:38:09;43.00;;;34.42;;
40931;SDS011;36257;46.052;12.540;2023-12-28T02:40:37;52.15;;;35.63;;
40931;SDS011;36257;46.052;12.540;2023-12-28T02:43:05;42.53;;;33.80;;
40931;SDS011;36257;46.052;12.540;2023-12-28T02:45:31;45.95;;;33.17;;
40931;SDS011;36257;46.052;12.540;2023-12-28T02:47:57;45.65;;;32.97;;
40931;SDS011;36257;46.052;12.540;2023-12-28T02:50:22;42.25;;;32.45;;
40931;SDS011;36257;46.052;12.540;2023-12-28T02:52:48;44.17;;;32.42;;
40931;SDS011;36257;46.052;12.540;2023-12-28T02:55:13;39.05;;;29.60;;
40931;SDS011;36257;46.052;12.540;2023-12-28T02:57:39;37.55;;;27.65;;
40931;SDS011;36257;46.052;12.540;2023-12-28T03:00:05;38.45;;;28.42;;
40931;SDS011;36257;46.052;12.540;2023-12-28T03:02:33;34.30;;;26.27;;
40931;SDS011;36257;46.052;12.540;2023-12-28T03:05:01;36.67;;;25.58;;
40931;SDS011;36257;46.052;12.540;2023-12-28T03:07:26;30.65;;;24.58;;
40931;SDS011;36257;46.052;12.540;2023-12-28T03:09:52;28.52;;;23.33;;
40931;SDS011;36257;46.052;12.540;2023-12-28T03:12:18;28.05;;;22.58;;
40931;SDS011;36257;46.052;12.540;2023-12-28T03:14:43;30.02;;;23.08;;
40931;SDS011;36257;46.052;12.540;2023-12-28T03:17:09;30.60;;;24.92;;
40931;SDS011;36257;46.052;12.540;2023-12-28T03:19:36;33.65;;;24.83;;
40931;SDS011;36257;46.052;12.540;2023-12-28T03:22:02;33.00;;;23.63;;
40931;SDS011;36257;46.052;12.540;2023-12-28T03:24:28;28.35;;;22.85;;
40931;SDS011;36257;46.052;12.540;2023-12-28T03:26:53;31.15;;;24.83;;
40931;SDS011;36257;46.052;12.540;2023-12-28T03:29:19;29.33;;;23.00;;
40931;SDS011;36257;46.052;12.540;2023-12-28T03:31:45;30.02;;;23.08;;
40931;SDS011;36257;46.052;12.540;2023-12-28T03:34:11;30.77;;;23.50;;
40931;SDS011;36257;46.052;12.540;2023-12-28T03:36:36;34.10;;;24.83;;
40931;SDS011;36257;46.052;12.540;2023-12-28T03:39:02;30.92;;;24.45;;
40931;SDS011;36257;46.052;12.540;2023-12-28T03:41:31;31.48;;;26.35;;
40931;SDS011;36257;46.052;12.540;2023-12-28T03:43:56;32.03;;;23.42;;
40931;SDS011;36257;46.052;12.540;2023-12-28T03:46:22;31.20;;;24.30;;
40931;SDS011;36257;46.052;12.540;2023-12-28T03:48:48;27.83;;;23.38;;
40931;SDS011;36257;46.052;12.540;2023-12-28T03:51:14;30.33;;;24.10;;
40931;SDS011;36257;46.052;12.540;2023-12-28T03:53:41;28.77;;;22.30;;
40931;SDS011;36257;46.052;12.540;2023-12-28T03:56:19;36.22;;;26.55;;
40931;SDS011;36257;46.052;12.540;2023-12-28T03:58:52;33.10;;;25.67;;
40931;SDS011;36257;46.052;12.540;2023-12-28T04:01:18;29.73;;;24.05;;
40931;SDS011;36257;46.052;12.540;2023-12-28T04:03:44;36.38;;;27.70;;
40931;SDS011;36257;46.052;12.540;2023-12-28T04:06:10;34.50;;;24.92;;
40931;SDS011;36257;46.052;12.540;2023-12-28T04:08:37;33.08;;;25.42;;
40931;SDS011;36257;46.052;12.540;2023-12-28T04:11:03;32.55;;;23.38;;
40931;SDS011;36257;46.052;12.540;2023-12-28T04:13:29;33.60;;;25.58;;
40931;SDS011;36257;46.052;12.540;2023-12-28T04:15:55;28.90;;;22.40;;
40931;SDS011;36257;46.052;12.540;2023-12-28T04:18:20;31.75;;;24.30;;
40931;SDS011;36257;46.052;12.540;2023-12-28T04:20:46;30.30;;;24.63;;
40931;SDS011;36257;46.052;12.540;2023-12-28T04:23:12;30.23;;;22.92;;
40931;SDS011;36257;46.052;12.540;2023-12-28T04:25:38;30.98;;;23.98;;
40931;SDS011;36257;46.052;12.540;2023-12-28T04:28:04;28.02;;;22.67;;
40931;SDS011;36257;46.052;12.540;2023-12-28T04:30:30;31.33;;;23.20;;
40931;SDS011;36257;46.052;12.540;2023-12-28T04:32:56;28.27;;;22.20;;
40931;SDS011;36257;46.052;12.540;2023-12-28T04:35:22;27.73;;;22.13;;
40931;SDS011;36257;46.052;12.540;2023-12-28T04:37:47;27.02;;;22.70;;
40931;SDS011;36257;46.052;12.540;2023-12-28T04:40:13;28.10;;;23.02;;
40931;SDS011;36257;46.052;12.540;2023-12-28T04:42:39;28.73;;;21.52;;
40931;SDS011;36257;46.052;12.540;2023-12-28T04:45:06;30.52;;;23.08;;
40931;SDS011;36257;46.052;12.540;2023-12-28T04:47:32;37.03;;;22.88;;
40931;SDS011;36257;46.052;12.540;2023-12-28T04:49:58;31.55;;;24.48;;
40931;SDS011;36257;46.052;12.540;2023-12-28T04:52:23;30.10;;;22.77;;
40931;SDS011;36257;46.052;12.540;2023-12-28T04:54:49;30.95;;;22.25;;
40931;SDS011;36257;46.052;12.540;2023-12-28T04:57:15;32.60;;;23.40;;
40931;SDS011;36257;46.052;12.540;2023-12-28T04:59:41;33.53;;;23.50;;
40931;SDS011;36257;46.052;12.540;2023-12-28T05:02:07;31.27;;;24.92;;
40931;SDS011;36257;46.052;12.540;2023-12-28T05:04:33;35.50;;;24.23;;
40931;SDS011;36257;46.052;12.540;2023-12-28T05:07:03;32.85;;;25.95;;
40931;SDS011;36257;46.052;12.540;2023-12-28T05:09:29;31.58;;;22.20;;
40931;SDS011;36257;46.052;12.540;2023-12-28T05:11:54;34.33;;;23.98;;
40931;SDS011;36257;46.052;12.540;2023-12-28T05:14:20;40.33;;;25.13;;
40931;SDS011;36257;46.052;12.540;2023-12-28T05:16:45;36.65;;;27.50;;
40931;SDS011;36257;46.052;12.540;2023-12-28T05:19:11;36.38;;;27.73;;
40931;SDS011;36257;46.052;12.540;2023-12-28T05:21:37;37.67;;;29.23;;
40931;SDS011;36257;46.052;12.540;2023-12-28T05:24:02;39.38;;;28.88;;
40931;SDS011;36257;46.052;12.540;2023-12-28T05:26:28;34.70;;;26.00;;
40931;SDS011;36257;46.052;12.540;2023-12-28T05:28:54;40.00;;;26.75;;
40931;SDS011;36257;46.052;12.540;2023-12-28T05:31:19;34.63;;;27.20;;
40931;SDS011;36257;46.052;12.540;2023-12-28T05:33:45;37.03;;;27.55;;
40931;SDS011;36257;46.052;12.540;2023-12-28T05:36:10;33.40;;;25.25;;
40931;SDS011;36257;46.052;12.540;2023-12-28T05:38:36;34.50;;;24.35;;
40931;SDS011;36257;46.052;12.540;2023-12-28T05:41:02;35.97;;;25.45;;
40931;SDS011;36257;46.052;12.540;2023-12-28T05:43:27;31.95;;;23.83;;
40931;SDS011;36257;46.052;12.540;2023-12-28T05:45:53;31.60;;;23.67;;
40931;SDS011;36257;46.052;12.540;2023-12-28T05:48:18;31.05;;;23.10;;
40931;SDS011;36257;46.052;12.540;2023-12-28T05:50:44;30.83;;;23.60;;
40931;SDS011;36257;46.052;12.540;2023-12-28T05:53:10;33.35;;;24.95;;
40931;SDS011;36257;46.052;12.540;2023-12-28T05:55:39;30.33;;;23.17;;
40931;SDS011;36257;46.052;12.540;2023-12-28T05:58:08;27.80;;;20.88;;
40931;SDS011;36257;46.052;12.540;2023-12-28T06:00:37;25.83;;;20.75;;
40931;SDS011;36257;46.052;12.540;2023-12-28T06:03:03;26.70;;;20.27;;
40931;SDS011;36257;46.052;12.540;2023-12-28T06:05:29;26.40;;;20.80;;
40931;SDS011;36257;46.052;12.540;2023-12-28T06:07:55;28.10;;;19.73;;
40931;SDS011;36257;46.052;12.540;2023-12-28T06:10:21;28.85;;;20.35;;
40931;SDS011;36257;46.052;12.540;2023-12-28T06:12:47;25.80;;;20.10;;
40931;SDS011;36257;46.052;12.540;2023-12-28T06:15:12;26.02;;;20.40;;
40931;SDS011;36257;46.052;12.540;2023-12-28T06:17:38;26.33;;;20.20;;
40931;SDS011;36257;46.052;12.540;2023-12-28T06:20:04;23.92;;;18.00;;
40931;SDS011;36257;46.052;12.540;2023-12-28T06:22:30;24.05;;;18.00;;
40931;SDS011;36257;46.052;12.540;2023-12-28T06:24:56;20.85;;;16.85;;
40931;SDS011;36257;46.052;12.540;2023-12-28T06:27:22;21.63;;;18.20;;
40931;SDS011;36257;46.052;12.540;2023-12-28T06:29:48;26.20;;;17.88;;
40931;SDS011;36257;46.052;12.540;2023-12-28T06:32:14;21.15;;;16.48;;
40931;SDS011;36257;46.052;12.540;2023-12-28T06:34:40;25.05;;;17.45;;
40931;SDS011;36257;46.052;12.540;2023-12-28T06:37:06;25.77;;;17.55;;
40931;SDS011;36257;46.052;12.540;2023-12-28T06:39:31;22.77;;;17.10;;
40931;SDS011;36257;46.052;12.540;2023-12-28T06:41:57;22.42;;;16.77;;
40931;SDS011;36257;46.052;12.540;2023-12-28T06:44:22;20.80;;;15.75;;
40931;SDS011;36257;46.052;12.540;2023-12-28T06:46:48;21.05;;;16.48;;
40931;SDS011;36257;46.052;12.540;2023-12-28T06:49:14;23.40;;;17.08;;
40931;SDS011;36257;46.052;12.540;2023-12-28T06:51:39;41.72;;;28.63;;
40931;SDS011;36257;46.052;12.540;2023-12-28T06:54:07;74.63;;;45.67;;
40931;SDS011;36257;46.052;12.540;2023-12-28T06:56:34;62.60;;;38.60;;
40931;SDS011;36257;46.052;12.540;2023-12-28T06:58:59;50.03;;;31.05;;
40931;SDS011;36257;46.052;12.540;2023-12-28T07:01:25;44.80;;;28.98;;
40931;SDS011;36257;46.052;12.540;2023-12-28T07:03:51;36.95;;;24.92;;
40931;SDS011;36257;46.052;12.540;2023-12-28T07:06:17;29.02;;;22.38;;
40931;SDS011;36257;46.052;12.540;2023-12-28T07:08:42;33.17;;;22.95;;
40931;SDS011;36257;46.052;12.540;2023-12-28T07:11:11;25.70;;;20.73;;
40931;SDS011;36257;46.052;12.540;2023-12-28T07:13:37;28.58;;;22.33;;
40931;SDS011;36257;46.052;12.540;2023-12-28T07:16:03;24.35;;;19.65;;
40931;SDS011;36257;46.052;12.540;2023-12-28T07:18:29;22.60;;;18.65;;
40931;SDS011;36257;46.052;12.540;2023-12-28T07:20:55;21.60;;;16.52;;
40931;SDS011;36257;46.052;12.540;2023-12-28T07:23:20;25.42;;;15.73;;
40931;SDS011;36257;46.052;12.540;2023-12-28T07:25:46;16.92;;;13.60;;
40931;SDS011;36257;46.052;12.540;2023-12-28T07:28:12;16.45;;;13.20;;
40931;SDS011;36257;46.052;12.540;2023-12-28T07:30:38;18.15;;;13.05;;
40931;SDS011;36257;46.052;12.540;2023-12-28T07:33:04;15.90;;;13.15;;
40931;SDS011;36257;46.052;12.540;2023-12-28T07:35:29;19.63;;;13.88;;
40931;SDS011;36257;46.052;12.540;2023-12-28T07:37:55;16.25;;;13.90;;
40931;SDS011;36257;46.052;12.540;2023-12-28T07:40:21;19.33;;;15.95;;
40931;SDS011;36257;46.052;12.540;2023-12-28T07:42:46;19.73;;;14.95;;
40931;SDS011;36257;46.052;12.540;2023-12-28T07:45:12;19.33;;;17.00;;
40931;SDS011;36257;46.052;12.540;2023-12-28T07:47:37;23.92;;;19.25;;
40931;SDS011;36257;46.052;12.540;2023-12-28T07:50:03;22.88;;;18.60;;
40931;SDS011;36257;46.052;12.540;2023-12-28T07:52:29;36.30;;;29.55;;
40931;SDS011;36257;46.052;12.540;2023-12-28T07:54:55;29.67;;;23.48;;
40931;SDS011;36257;46.052;12.540;2023-12-28T07:57:21;25.58;;;20.75;;
40931;SDS011;36257;46.052;12.540;2023-12-28T07:59:46;27.40;;;19.73;;
40931;SDS011;36257;46.052;12.540;2023-12-28T08:02:12;24.63;;;20.52;;
40931;SDS011;36257;46.052;12.540;2023-12-28T08:04:38;25.20;;;21.10;;
40931;SDS011;36257;46.052;12.540;2023-12-28T08:07:04;22.15;;;18.42;;
40931;SDS011;36257;46.052;12.540;2023-12-28T08:09:29;20.88;;;17.23;;
40931;SDS011;36257;46.052;12.540;2023-12-28T08:11:55;22.00;;;16.95;;
40931;SDS011;36257;46.052;12.540;2023-12-28T08:14:21;22.33;;;16.27;;
40931;SDS011;36257;46.052;12.540;2023-12-28T08:16:46;19.98;;;17.02;;
40931;SDS011;36257;46.052;12.540;2023-12-28T08:19:12;27.80;;;20.35;;
40931;SDS011;36257;46.052;12.540;2023-12-28T08:21:38;27.00;;;20.23;;
40931;SDS011;36257;46.052;12.540;2023-12-28T08:24:04;25.20;;;18.88;;
40931;SDS011;36257;46.052;12.540;2023-12-28T08:26:29;24.27;;;19.92;;
40931;SDS011;36257;46.052;12.540;2023-12-28T08:31:23;27.73;;;21.27;;
40931;SDS011;36257;46.052;12.540;2023-12-28T08:33:49;29.73;;;21.88;;
40931;SDS011;36257;46.052;12.540;2023-12-28T08:36:15;25.75;;;20.00;;
40931;SDS011;36257;46.052;12.540;2023-12-28T08:38:42;30.58;;;20.13;;
40931;SDS011;36257;46.052;12.540;2023-12-28T08:41:17;24.65;;;18.52;;
40931;SDS011;36257;46.052;12.540;2023-12-28T08:43:54;27.77;;;19.55;;
40931;SDS011;36257;46.052;12.540;2023-12-28T08:46:23;28.17;;;21.42;;
40931;SDS011;36257;46.052;12.540;2023-12-28T08:48:52;29.58;;;24.02;;
40931;SDS011;36257;46.052;12.540;2023-12-28T08:51:17;25.13;;;19.63;;
40931;SDS011;36257;46.052;12.540;2023-12-28T08:53:43;23.05;;;16.85;;
40931;SDS011;36257;46.052;12.540;2023-12-28T08:56:21;20.63;;;16.00;;
40931;SDS011;36257;46.052;12.540;2023-12-28T08:58:47;18.65;;;14.70;;
40931;SDS011;36257;46.052;12.540;2023-12-28T09:01:17;20.83;;;15.68;;
40931;SDS011;36257;46.052;12.540;2023-12-28T09:03:44;18.70;;;15.98;;
40931;SDS011;36257;46.052;12.540;2023-12-28T09:06:10;20.23;;;15.52;;
40931;SDS011;36257;46.052;12.540;2023-12-28T09:08:36;17.73;;;14.20;;
40931;SDS011;36257;46.052;12.540;2023-12-28T09:11:01;19.40;;;14.52;;
40931;SDS011;36257;46.052;12.540;2023-12-28T09:13:27;19.05;;;13.45;;
40931;SDS011;36257;46.052;12.540;2023-12-28T09:15:53;14.27;;;12.77;;
40931;SDS011;36257;46.052;12.540;2023-12-28T09:18:18;16.95;;;13.82;;
40931;SDS011;36257;46.052;12.540;2023-12-28T09:20:44;17.00;;;11.88;;
40931;SDS011;36257;46.052;12.540;2023-12-28T09:23:10;13.07;;;10.57;;
40931;SDS011;36257;46.052;12.540;2023-12-28T09:25:36;17.92;;;12.32;;
40931;SDS011;36257;46.052;12.540;2023-12-28T09:28:03;12.98;;;11.65;;
40931;SDS011;36257;46.052;12.540;2023-12-28T09:30:30;14.07;;;11.73;;
40931;SDS011;36257;46.052;12.540;2023-12-28T09:32:56;13.52;;;10.27;;
40931;SDS011;36257;46.052;12.540;2023-12-28T09:35:21;17.38;;;11.85;;
40931;SDS011;36257;46.052;12.540;2023-12-28T09:37:47;20.75;;;13.50;;
40931;SDS011;36257;46.052;12.540;2023-12-28T09:40:13;39.47;;;28.33;;
40931;SDS011;36257;46.052;12.540;2023-12-28T09:42:43;52.38;;;38.63;;
40931;SDS011;36257;46.052;12.540;2023-12-28T09:45:30;54.88;;;39.42;;
40931;SDS011;36257;46.052;12.540;2023-12-28T09:47:56;54.35;;;41.40;;
40931;SDS011;36257;46.052;12.540;2023-12-28T09:50:21;59.75;;;41.88;;
40931;SDS011;36257;46.052;12.540;2023-12-28T09:52:48;55.08;;;40.28;;
40931;SDS011;36257;46.052;12.540;2023-12-28T09:55:14;59.10;;;43.17;;
40931;SDS011;36257;46.052;12.540;2023-12-28T09:57:40;56.47;;;39.97;;
40931;SDS011;36257;46.052;12.540;2023-12-28T10:00:07;52.20;;;38.42;;
40931;SDS011;36257;46.052;12.540;2023-12-28T10:02:34;52.47;;;37.20;;
40931;SDS011;36257;46.052;12.540;2023-12-28T10:05:00;50.30;;;36.55;;
40931;SDS011;36257;46.052;12.540;2023-12-28T10:07:26;49.92;;;38.58;;
40931;SDS011;36257;46.052;12.540;2023-12-28T10:09:52;51.47;;;37.80;;
40931;SDS011;36257;46.052;12.540;2023-12-28T10:12:17;46.83;;;36.00;;
40931;SDS011;36257;46.052;12.540;2023-12-28T10:14:44;45.92;;;34.95;;
40931;SDS011;36257;46.052;12.540;2023-12-28T10:17:09;45.50;;;33.92;;
40931;SDS011;36257;46.052;12.540;2023-12-28T10:19:36;47.05;;;34.13;;
40931;SDS011;36257;46.052;12.540;2023-12-28T10:22:02;41.40;;;30.05;;
40931;SDS011;36257;46.052;12.540;2023-12-28T10:24:28;36.83;;;27.40;;
40931;SDS011;36257;46.052;12.540;2023-12-28T10:26:53;34.50;;;22.17;;
40931;SDS011;36257;46.052;12.540;2023-12-28T10:29:19;24.55;;;19.33;;
40931;SDS011;36257;46.052;12.540;2023-12-28T10:31:45;29.45;;;19.45;;
40931;SDS011;36257;46.052;12.540;2023-12-28T10:34:14;25.40;;;18.42;;
40931;SDS011;36257;46.052;12.540;2023-12-28T10:36:40;27.27;;;18.17;;
40931;SDS011;36257;46.052;12.540;2023-12-28T10:39:07;22.80;;;17.13;;
40931;SDS011;36257;46.052;12.540;2023-12-28T10:41:37;21.48;;;16.63;;
40931;SDS011;36257;46.052;12.540;2023-12-28T10:44:06;21.10;;;16.73;;
40931;SDS011;36257;46.052;12.540;2023-12-28T10:46:35;25.45;;;17.63;;
40931;SDS011;36257;46.052;12.540;2023-12-28T10:49:09;23.70;;;17.77;;
40931;SDS011;36257;46.052;12.540;2023-12-28T10:51:40;24.10;;;16.70;;
40931;SDS011;36257;46.052;12.540;2023-12-28T10:57:29;48.42;;;34.55;;
40931;SDS011;36257;46.052;12.540;2023-12-28T11:02:40;50.30;;;35.55;;
40931;SDS011;36257;46.052;12.540;2023-12-28T11:05:09;45.60;;;31.77;;
40931;SDS011;36257;46.052;12.540;2023-12-28T11:10:06;43.35;;;32.80;;
40931;SDS011;36257;46.052;12.540;2023-12-28T11:12:32;44.30;;;31.15;;
40931;SDS011;36257;46.052;12.540;2023-12-28T11:14:59;44.70;;;32.53;;
40931;SDS011;36257;46.052;12.540;2023-12-28T11:17:26;42.80;;;29.88;;
40931;SDS011;36257;46.052;12.540;2023-12-28T11:19:53;38.30;;;27.90;;
40931;SDS011;36257;46.052;12.540;2023-12-28T11:22:19;36.83;;;26.27;;
40931;SDS011;36257;46.052;12.540;2023-12-28T11:24:47;39.15;;;26.85;;
40931;SDS011;36257;46.052;12.540;2023-12-28T11:27:13;43.72;;;28.30;;
40931;SDS011;36257;46.052;12.540;2023-12-28T11:29:38;38.08;;;28.63;;
40931;SDS011;36257;46.052;12.540;2023-12-28T11:32:07;38.53;;;27.38;;
40931;SDS011;36257;46.052;12.540;2023-12-28T11:34:34;44.83;;;28.33;;
40931;SDS011;36257;46.052;12.540;2023-12-28T11:37:02;39.55;;;28.42;;
40931;SDS011;36257;46.052;12.540;2023-12-28T11:39:35;37.60;;;26.98;;
40931;SDS011;36257;46.052;12.540;2023-12-28T11:42:03;43.47;;;29.15;;
40931;SDS011;36257;46.052;12.540;2023-12-28T11:44:30;36.75;;;27.27;;
40931;SDS011;36257;46.052;12.540;2023-12-28T11:47:16;30.10;;;23.67;;
40931;SDS011;36257;46.052;12.540;2023-12-28T11:49:45;30.27;;;22.48;;
40931;SDS011;36257;46.052;12.540;2023-12-28T11:52:26;28.98;;;22.40;;
40931;SDS011;36257;46.052;12.540;2023-12-28T11:54:53;30.80;;;22.80;;
40931;SDS011;36257;46.052;12.540;2023-12-28T11:57:19;32.80;;;23.38;;
40931;SDS011;36257;46.052;12.540;2023-12-28T11:59:45;33.33;;;22.83;;
40931;SDS011;36257;46.052;12.540;2023-12-28T12:02:13;32.63;;;21.92;;
40931;SDS011;36257;46.052;12.540;2023-12-28T12:04:39;34.20;;;24.98;;
40931;SDS011;36257;46.052;12.540;2023-12-28T12:07:04;36.72;;;27.45;;
40931;SDS011;36257;46.052;12.540;2023-12-28T12:09:30;39.10;;;27.38;;
40931;SDS011;36257;46.052;12.540;2023-12-28T12:12:03;33.88;;;24.17;;
40931;SDS011;36257;46.052;12.540;2023-12-28T12:14:30;33.55;;;25.27;;
40931;SDS011;36257;46.052;12.540;2023-12-28T12:16:59;29.05;;;23.73;;
40931;SDS011;36257;46.052;12.540;2023-12-28T12:19:25;33.03;;;25.00;;
40931;SDS011;36257;46.052;12.540;2023-12-28T12:21:52;33.38;;;24.17;;
40931;SDS011;36257;46.052;12.540;2023-12-28T12:24:18;32.03;;;24.83;;
40931;SDS011;36257;46.052;12.540;2023-12-28T12:26:47;35.33;;;25.58;;
40931;SDS011;36257;46.052;12.540;2023-12-28T12:29:17;33.40;;;25.27;;
40931;SDS011;36257;46.052;12.540;2023-12-28T12:31:43;31.13;;;22.55;;
40931;SDS011;36257;46.052;12.540;2023-12-28T12:34:11;29.40;;;22.70;;
40931;SDS011;36257;46.052;12.540;2023-12-28T12:36:38;31.83;;;22.80;;
40931;SDS011;36257;46.052;12.540;2023-12-28T12:39:04;28.17;;;21.85;;
40931;SDS011;36257;46.052;12.540;2023-12-28T12:41:31;27.63;;;23.33;;
40931;SDS011;36257;46.052;12.540;2023-12-28T12:44:03;26.20;;;20.40;;
40931;SDS011;36257;46.052;12.540;2023-12-28T12:46:30;29.35;;;20.75;;
40931;SDS011;36257;46.052;12.540;2023-12-28T12:48:56;25.52;;;21.13;;
40931;SDS011;36257;46.052;12.540;2023-12-28T12:51:27;32.00;;;23.85;;
40931;SDS011;36257;46.052;12.540;2023-12-28T12:54:00;28.65;;;22.55;;
40931;SDS011;36257;46.052;12.540;2023-12-28T12:56:27;29.92;;;22.73;;
40931;SDS011;36257;46.052;12.540;2023-12-28T12:58:54;31.97;;;23.03;;
40931;SDS011;36257;46.052;12.540;2023-12-28T13:01:20;25.98;;;21.58;;
40931;SDS011;36257;46.052;12.540;2023-12-28T13:03:47;31.38;;;23.60;;
40931;SDS011;36257;46.052;12.540;2023-12-28T13:06:12;31.27;;;22.80;;
40931;SDS011;36257;46.052;12.540;2023-12-28T13:08:38;29.27;;;23.08;;
40931;SDS011;36257;46.052;12.540;2023-12-28T13:11:04;30.88;;;23.25;;
40931;SDS011;36257;46.052;12.540;2023-12-28T13:15:58;27.02;;;22.45;;
40931;SDS011;36257;46.052;12.540;2023-12-28T13:18:23;27.42;;;21.40;;
40931;SDS011;36257;46.052;12.540;2023-12-28T13:20:49;29.13;;;20.23;;
40931;SDS011;36257;46.052;12.540;2023-12-28T13:23:15;28.75;;;21.45;;
40931;SDS011;36257;46.052;12.540;2023-12-28T13:25:40;26.17;;;21.00;;
40931;SDS011;36257;46.052;12.540;2023-12-28T13:28:06;32.15;;;23.38;;
40931;SDS011;36257;46.052;12.540;2023-12-28T13:30:33;29.08;;;21.45;;
40931;SDS011;36257;46.052;12.540;2023-12-28T13:33:01;30.10;;;23.50;;
40931;SDS011;36257;46.052;12.540;2023-12-28T13:35:27;29.30;;;24.15;;
40931;SDS011;36257;46.052;12.540;2023-12-28T13:37:53;32.50;;;23.20;;
40931;SDS011;36257;46.052;12.540;2023-12-28T13:40:19;31.92;;;23.27;;
40931;SDS011;36257;46.052;12.540;2023-12-28T13:42:44;30.92;;;23.23;;
40931;SDS011;36257;46.052;12.540;2023-12-28T13:45:10;30.98;;;23.90;;
40931;SDS011;36257;46.052;12.540;2023-12-28T13:47:36;30.88;;;22.65;;
40931;SDS011;36257;46.052;12.540;2023-12-28T13:50:01;28.63;;;22.30;;
40931;SDS011;36257;46.052;12.540;2023-12-28T13:52:27;31.58;;;25.02;;
40931;SDS011;36257;46.052;12.540;2023-12-28T13:54:53;33.88;;;24.67;;
40931;SDS011;36257;46.052;12.540;2023-12-28T13:57:19;31.05;;;23.52;;
40931;SDS011;36257;46.052;12.540;2023-12-28T13:59:45;30.08;;;24.10;;
40931;SDS011;36257;46.052;12.540;2023-12-28T14:02:10;29.27;;;23.05;;
40931;SDS011;36257;46.052;12.540;2023-12-28T14:04:36;35.13;;;22.58;;
40931;SDS011;36257;46.052;12.540;2023-12-28T14:07:02;30.35;;;23.77;;
40931;SDS011;36257;46.052;12.540;2023-12-28T14:09:28;34.53;;;23.98;;
40931;SDS011;36257;46.052;12.540;2023-12-28T14:11:55;33.15;;;24.67;;
40931;SDS011;36257;46.052;12.540;2023-12-28T14:14:21;38.35;;;27.25;;
40931;SDS011;36257;46.052;12.540;2023-12-28T14:16:46;33.90;;;25.10;;
40931;SDS011;36257;46.052;12.540;2023-12-28T14:19:12;29.20;;;23.50;;
40931;SDS011;36257;46.052;12.540;2023-12-28T14:21:38;31.15;;;24.48;;